Dengqen, China
Current Conditions -  °F | °C
As of 5:50 PM on Friday 19 Dec 2014 (Local Time) from VQPR Reporting Station
Clear Clear  
Wind Chill: 63°   Ceiling: Unl
Heat Index: 63°   Visibility: 6mi
Dew Point: 12°   Wind: 5mph
Humidity: 14%   Direction: 180°S
Pressure: 30.15"   Gusts: NA
Location:  31.42°N, 95.6°E
Report Text: VQPR 190950Z 18004KT 9999 SKC 17/M11 Q1021 NOSIG
Loading
Personal Weather Stations






























Interactive Weather Map New forecast layout! Learn more

10-Day Weather Forecast

Advertisements
Track Severe Weather on mobile